sensor_id;sensor_type;location;lat;lon;timestamp;pressure;altitude;pressure_sealevel;temperature;humidity
13068;BME280;6600;51.362;6.686;2023-03-01T00:00:40;102630.16;;;1.03;86.47
13068;BME280;6600;51.362;6.686;2023-03-01T00:03:06;102630.03;;;0.92;87.33
13068;BME280;6600;51.362;6.686;2023-03-01T00:05:32;102613.91;;;0.96;86.94
13068;BME280;6600;51.362;6.686;2023-03-01T00:07:58;102620.00;;;0.97;86.90
13068;BME280;6600;51.362;6.686;2023-03-01T00:10:23;102622.84;;;0.94;87.00
13068;BME280;6600;51.362;6.686;2023-03-01T00:12:49;102619.47;;;0.92;87.02
13068;BME280;6600;51.362;6.686;2023-03-01T00:15:14;102628.03;;;0.83;87.60
13068;BME280;6600;51.362;6.686;2023-03-01T00:17:39;102629.09;;;0.80;87.99
13068;BME280;6600;51.362;6.686;2023-03-01T00:20:05;102624.03;;;0.77;88.25
13068;BME280;6600;51.362;6.686;2023-03-01T00:22:36;102619.81;;;0.75;88.54
13068;BME280;6600;51.362;6.686;2023-03-01T00:25:02;102611.69;;;0.78;87.97
13068;BME280;6600;51.362;6.686;2023-03-01T00:27:27;102619.69;;;0.76;87.87
13068;BME280;6600;51.362;6.686;2023-03-01T00:29:53;102619.81;;;0.75;88.29
13068;BME280;6600;51.362;6.686;2023-03-01T00:32:18;102623.59;;;0.71;88.49
13068;BME280;6600;51.362;6.686;2023-03-01T00:34:44;102620.22;;;0.81;87.93
13068;BME280;6600;51.362;6.686;2023-03-01T00:37:22;102617.16;;;0.75;87.96
13068;BME280;6600;51.362;6.686;2023-03-01T00:39:48;102609.13;;;0.76;88.13
13068;BME280;6600;51.362;6.686;2023-03-01T00:42:14;102605.69;;;0.76;87.75
13068;BME280;6600;51.362;6.686;2023-03-01T00:44:40;102603.97;;;0.75;87.83
13068;BME280;6600;51.362;6.686;2023-03-01T00:47:05;102600.50;;;0.74;88.33
13068;BME280;6600;51.362;6.686;2023-03-01T00:49:31;102598.47;;;0.78;88.09
13068;BME280;6600;51.362;6.686;2023-03-01T00:51:56;102591.94;;;0.71;87.91
13068;BME280;6600;51.362;6.686;2023-03-01T00:54:21;102599.31;;;0.66;88.80
13068;BME280;6600;51.362;6.686;2023-03-01T00:56:46;102603.97;;;0.62;89.13
13068;BME280;6600;51.362;6.686;2023-03-01T00:59:12;102598.06;;;0.59;88.83
13068;BME280;6600;51.362;6.686;2023-03-01T01:01:37;102594.91;;;0.54;89.21
13068;BME280;6600;51.362;6.686;2023-03-01T01:04:05;102586.47;;;0.61;88.88
13068;BME280;6600;51.362;6.686;2023-03-01T01:06:34;102587.31;;;0.62;89.59
13068;BME280;6600;51.362;6.686;2023-03-01T01:09:00;102580.56;;;0.58;89.47
13068;BME280;6600;51.362;6.686;2023-03-01T01:11:28;102582.44;;;0.56;89.77
13068;BME280;6600;51.362;6.686;2023-03-01T01:13:55;102578.44;;;0.50;90.75
13068;BME280;6600;51.362;6.686;2023-03-01T01:16:22;102572.09;;;0.52;90.67
13068;BME280;6600;51.362;6.686;2023-03-01T01:18:48;102566.44;;;0.59;90.86
13068;BME280;6600;51.362;6.686;2023-03-01T01:21:17;102562.19;;;0.56;90.20
13068;BME280;6600;51.362;6.686;2023-03-01T01:23:44;102562.53;;;0.52;89.84
13068;BME280;6600;51.362;6.686;2023-03-01T01:26:12;102561.97;;;0.46;90.87
13068;BME280;6600;51.362;6.686;2023-03-01T01:28:38;102551.66;;;0.43;90.29
13068;BME280;6600;51.362;6.686;2023-03-01T01:31:04;102548.25;;;0.41;90.36
13068;BME280;6600;51.362;6.686;2023-03-01T01:33:30;102549.94;;;0.42;90.75
13068;BME280;6600;51.362;6.686;2023-03-01T01:35:55;102544.56;;;0.31;91.17
13068;BME280;6600;51.362;6.686;2023-03-01T01:38:21;102543.63;;;0.32;91.42
13068;BME280;6600;51.362;6.686;2023-03-01T01:40:47;102541.75;;;0.34;91.84
13068;BME280;6600;51.362;6.686;2023-03-01T01:43:21;102539.50;;;0.28;91.24
13068;BME280;6600;51.362;6.686;2023-03-01T01:45:47;102531.38;;;0.31;90.91
13068;BME280;6600;51.362;6.686;2023-03-01T01:48:17;102537.06;;;0.25;91.17
13068;BME280;6600;51.362;6.686;2023-03-01T01:50:43;102528.88;;;0.17;91.77
13068;BME280;6600;51.362;6.686;2023-03-01T01:53:12;102522.94;;;0.26;92.19
13068;BME280;6600;51.362;6.686;2023-03-01T01:55:43;102526.75;;;0.22;91.76
13068;BME280;6600;51.362;6.686;2023-03-01T01:58:11;102518.50;;;0.14;91.64
13068;BME280;6600;51.362;6.686;2023-03-01T02:00:39;102520.06;;;0.04;92.49
13068;BME280;6600;51.362;6.686;2023-03-01T02:03:09;102523.47;;;0.06;91.82
13068;BME280;6600;51.362;6.686;2023-03-01T02:08:55;102534.59;;;-0.03;92.57
13068;BME280;6600;51.362;6.686;2023-03-01T02:11:23;102526.53;;;0.00;92.01
13068;BME280;6600;51.362;6.686;2023-03-01T02:13:49;102526.91;;;-0.06;92.32
13068;BME280;6600;51.362;6.686;2023-03-01T02:16:16;102520.16;;;-0.10;92.59
13068;BME280;6600;51.362;6.686;2023-03-01T02:18:43;102519.97;;;-0.07;93.51
13068;BME280;6600;51.362;6.686;2023-03-01T02:23:34;102523.53;;;-0.08;93.26
13068;BME280;6600;51.362;6.686;2023-03-01T02:26:10;102525.97;;;-0.05;93.12
13068;BME280;6600;51.362;6.686;2023-03-01T02:28:38;102524.41;;;-0.08;93.30
13068;BME280;6600;51.362;6.686;2023-03-01T02:31:07;102514.06;;;-0.11;93.84
13068;BME280;6600;51.362;6.686;2023-03-01T02:33:52;102521.63;;;-0.06;93.21
13068;BME280;6600;51.362;6.686;2023-03-01T02:36:28;102520.16;;;-0.10;93.95
13068;BME280;6600;51.362;6.686;2023-03-01T02:38:57;102516.78;;;-0.12;94.06
13068;BME280;6600;51.362;6.686;2023-03-01T02:41:25;102507.75;;;-0.08;94.08
13068;BME280;6600;51.362;6.686;2023-03-01T02:43:52;102507.53;;;-0.05;94.68
13068;BME280;6600;51.362;6.686;2023-03-01T02:46:21;102509.22;;;-0.04;94.70
13068;BME280;6600;51.362;6.686;2023-03-01T02:48:56;102514.28;;;-0.01;94.82
13068;BME280;6600;51.362;6.686;2023-03-01T02:57:01;102503.63;;;-0.12;94.24
13068;BME280;6600;51.362;6.686;2023-03-01T02:59:30;102502.47;;;-0.08;94.26
13068;BME280;6600;51.362;6.686;2023-03-01T03:01:56;102514.16;;;-0.12;93.99
13068;BME280;6600;51.362;6.686;2023-03-01T03:04:22;102515.28;;;-0.16;94.89
13068;BME280;6600;51.362;6.686;2023-03-01T03:06:48;102515.09;;;-0.13;95.23
13068;BME280;6600;51.362;6.686;2023-03-01T03:09:15;102519.50;;;-0.14;94.74
13068;BME280;6600;51.362;6.686;2023-03-01T03:11:41;102507.41;;;-0.16;95.27
13068;BME280;6600;51.362;6.686;2023-03-01T03:14:09;102504.44;;;-0.24;93.99
13068;BME280;6600;51.362;6.686;2023-03-01T03:16:49;102506.88;;;-0.21;94.42
13068;BME280;6600;51.362;6.686;2023-03-01T03:19:17;102507.66;;;-0.33;94.57
13068;BME280;6600;51.362;6.686;2023-03-01T03:21:42;102512.53;;;-0.27;94.34
13068;BME280;6600;51.362;6.686;2023-03-01T03:24:08;102510.31;;;-0.33;93.94
13068;BME280;6600;51.362;6.686;2023-03-01T03:26:33;102504.31;;;-0.35;93.90
13068;BME280;6600;51.362;6.686;2023-03-01T03:28:58;102504.31;;;-0.35;93.22
13068;BME280;6600;51.362;6.686;2023-03-01T03:31:24;102504.50;;;-0.38;93.80
13068;BME280;6600;51.362;6.686;2023-03-01T03:33:50;102504.50;;;-0.38;94.79
13068;BME280;6600;51.362;6.686;2023-03-01T03:36:21;102494.56;;;-0.47;94.53
13068;BME280;6600;51.362;6.686;2023-03-01T03:38:47;102487.63;;;-0.48;95.31
13068;BME280;6600;51.362;6.686;2023-03-01T03:41:12;102492.69;;;-0.45;95.10
13068;BME280;6600;51.362;6.686;2023-03-01T03:43:39;102485.72;;;-0.46;94.75
13068;BME280;6600;51.362;6.686;2023-03-01T03:46:06;102485.09;;;-0.50;94.71
13068;BME280;6600;51.362;6.686;2023-03-01T03:48:37;102482.16;;;-0.45;93.98
13068;BME280;6600;51.362;6.686;2023-03-01T03:51:03;102487.63;;;-0.48;94.20
13068;BME280;6600;51.362;6.686;2023-03-01T03:53:31;102485.94;;;-0.49;94.68
13068;BME280;6600;51.362;6.686;2023-03-01T03:55:56;102471.38;;;-0.55;95.08
13068;BME280;6600;51.362;6.686;2023-03-01T03:58:24;102481.25;;;-0.59;95.25
13068;BME280;6600;51.362;6.686;2023-03-01T04:00:52;102479.59;;;-0.60;94.78
13068;BME280;6600;51.362;6.686;2023-03-01T04:03:19;102481.09;;;-0.56;94.20
13068;BME280;6600;51.362;6.686;2023-03-01T04:05:45;102477.69;;;-0.58;94.67
13068;BME280;6600;51.362;6.686;2023-03-01T04:08:11;102474.53;;;-0.63;94.63
13068;BME280;6600;51.362;6.686;2023-03-01T04:10:39;102461.69;;;-0.55;94.92
13068;BME280;6600;51.362;6.686;2023-03-01T04:13:06;102462.00;;;-0.59;95.31
13068;BME280;6600;51.362;6.686;2023-03-01T04:15:33;102460.19;;;-0.59;95.02
13068;BME280;6600;51.362;6.686;2023-03-01T04:17:59;102462.94;;;-0.60;95.42
13068;BME280;6600;51.362;6.686;2023-03-01T04:20:28;102456.41;;;-0.67;95.09
13068;BME280;6600;51.362;6.686;2023-03-01T04:25:23;102457.44;;;-0.70;95.59
13068;BME280;6600;51.362;6.686;2023-03-01T04:27:48;102447.13;;;-0.73;95.80
13068;BME280;6600;51.362;6.686;2023-03-01T04:30:14;102450.69;;;-0.74;95.44
13068;BME280;6600;51.362;6.686;2023-03-01T04:32:39;102454.47;;;-0.78;96.07
13068;BME280;6600;51.362;6.686;2023-03-01T04:35:05;102453.63;;;-0.78;95.79
13068;BME280;6600;51.362;6.686;2023-03-01T04:37:30;102457.09;;;-0.78;96.39
13068;BME280;6600;51.362;6.686;2023-03-01T04:39:56;102458.03;;;-0.79;95.64
13068;BME280;6600;51.362;6.686;2023-03-01T04:42:21;102457.66;;;-0.73;95.64
13068;BME280;6600;51.362;6.686;2023-03-01T04:44:46;102463.66;;;-0.71;94.64
13068;BME280;6600;51.362;6.686;2023-03-01T04:47:12;102460.16;;;-0.71;95.97
13068;BME280;6600;51.362;6.686;2023-03-01T04:49:38;102459.53;;;-0.75;95.17
13068;BME280;6600;51.362;6.686;2023-03-01T04:52:04;102463.84;;;-0.74;94.95
13068;BME280;6600;51.362;6.686;2023-03-01T04:54:31;102452.56;;;-0.76;96.05
13068;BME280;6600;51.362;6.686;2023-03-01T04:56:57;102455.31;;;-0.77;95.25
13068;BME280;6600;51.362;6.686;2023-03-01T04:59:22;102456.56;;;-0.83;95.29
13068;BME280;6600;51.362;6.686;2023-03-01T05:01:49;102461.44;;;-0.77;96.13
13068;BME280;6600;51.362;6.686;2023-03-01T05:04:14;102450.25;;;-0.80;94.81
13068;BME280;6600;51.362;6.686;2023-03-01T05:06:40;102457.81;;;-0.76;95.67
13068;BME280;6600;51.362;6.686;2023-03-01T05:09:05;102448.13;;;-0.88;95.17
13068;BME280;6600;51.362;6.686;2023-03-01T05:11:31;102446.22;;;-0.86;95.93
13068;BME280;6600;51.362;6.686;2023-03-01T05:14:04;102447.25;;;-0.88;95.15
13068;BME280;6600;51.362;6.686;2023-03-01T05:16:29;102448.13;;;-0.88;95.84
13068;BME280;6600;51.362;6.686;2023-03-01T05:18:55;102446.03;;;-0.83;95.53
13068;BME280;6600;51.362;6.686;2023-03-01T05:21:21;102445.84;;;-0.80;95.08
13068;BME280;6600;51.362;6.686;2023-03-01T05:23:47;102445.22;;;-0.71;95.31
13068;BME280;6600;51.362;6.686;2023-03-01T05:26:12;102434.28;;;-0.65;96.88
13068;BME280;6600;51.362;6.686;2023-03-01T05:28:38;102437.03;;;-0.66;96.57
13068;BME280;6600;51.362;6.686;2023-03-01T05:31:03;102433.34;;;-0.64;96.29
13068;BME280;6600;51.362;6.686;2023-03-01T05:33:35;102425.59;;;-0.53;96.47
13068;BME280;6600;51.362;6.686;2023-03-01T05:36:01;102419.78;;;-0.58;95.43
13068;BME280;6600;51.362;6.686;2023-03-01T05:38:26;102416.41;;;-0.60;95.55
13068;BME280;6600;51.362;6.686;2023-03-01T05:40:51;102426.94;;;-0.60;95.07
13068;BME280;6600;51.362;6.686;2023-03-01T05:43:17;102421.47;;;-0.57;95.37
13068;BME280;6600;51.362;6.686;2023-03-01T05:45:43;102427.56;;;-0.56;95.12
13068;BME280;6600;51.362;6.686;2023-03-01T05:48:10;102424.94;;;-0.56;95.10
13068;BME280;6600;51.362;6.686;2023-03-01T05:50:39;102420.63;;;-0.57;94.81
13068;BME280;6600;51.362;6.686;2023-03-01T05:55:37;102426.94;;;-0.60;95.05
13068;BME280;6600;51.362;6.686;2023-03-01T05:58:06;102434.69;;;-0.71;95.41
13068;BME280;6600;51.362;6.686;2023-03-01T06:00:33;102432.63;;;-0.66;95.24
13068;BME280;6600;51.362;6.686;2023-03-01T06:02:59;102437.47;;;-0.60;95.54
13068;BME280;6600;51.362;6.686;2023-03-01T06:05:25;102432.00;;;-0.57;96.00
13068;BME280;6600;51.362;6.686;2023-03-01T06:07:51;102438.09;;;-0.56;97.13
13068;BME280;6600;51.362;6.686;2023-03-01T06:10:19;102440.63;;;-0.55;94.98
13068;BME280;6600;51.362;6.686;2023-03-01T06:12:45;102434.97;;;-0.48;95.93
13068;BME280;6600;51.362;6.686;2023-03-01T06:15:12;102438.13;;;-0.43;95.87
13068;BME280;6600;51.362;6.686;2023-03-01T06:17:41;102439.81;;;-0.42;95.71
13068;BME280;6600;51.362;6.686;2023-03-01T06:20:18;102425.16;;;-0.46;94.85
13068;BME280;6600;51.362;6.686;2023-03-01T06:22:44;102427.88;;;-0.48;95.77
13068;BME280;6600;51.362;6.686;2023-03-01T06:25:13;102423.97;;;-0.55;96.40
13068;BME280;6600;51.362;6.686;2023-03-01T06:27:39;102428.44;;;-0.56;96.37
13068;BME280;6600;51.362;6.686;2023-03-01T06:30:05;102421.06;;;-0.51;95.86
13068;BME280;6600;51.362;6.686;2023-03-01T06:32:31;102414.94;;;-0.51;96.34
13068;BME280;6600;51.362;6.686;2023-03-01T06:34:56;102418.72;;;-0.55;95.83
13068;BME280;6600;51.362;6.686;2023-03-01T06:37:24;102421.16;;;-0.52;96.99
13068;BME280;6600;51.362;6.686;2023-03-01T06:39:49;102414.94;;;-0.51;96.21
13068;BME280;6600;51.362;6.686;2023-03-01T06:42:15;102414.97;;;-0.38;96.08
13068;BME280;6600;51.362;6.686;2023-03-01T06:44:40;102414.13;;;-0.39;95.35
13068;BME280;6600;51.362;6.686;2023-03-01T06:47:05;102416.25;;;-0.06;94.43
13068;BME280;6600;51.362;6.686;2023-03-01T06:49:31;102424.84;;;0.46;92.19
13068;BME280;6600;51.362;6.686;2023-03-01T06:51:56;102425.25;;;0.53;90.27
13068;BME280;6600;51.362;6.686;2023-03-01T06:54:22;102419.34;;;0.49;89.92
13068;BME280;6600;51.362;6.686;2023-03-01T06:56:48;102426.53;;;0.47;88.91
13068;BME280;6600;51.362;6.686;2023-03-01T06:59:15;102430.97;;;0.47;87.89
13068;BME280;6600;51.362;6.686;2023-03-01T07:01:40;102426.34;;;0.25;88.40
13068;BME280;6600;51.362;6.686;2023-03-01T07:04:06;102423.59;;;0.14;89.80
13068;BME280;6600;51.362;6.686;2023-03-01T07:06:31;102428.69;;;0.17;89.06
13068;BME280;6600;51.362;6.686;2023-03-01T07:08:57;102429.31;;;0.08;89.46
13068;BME280;6600;51.362;6.686;2023-03-01T07:11:22;102425.63;;;0.11;89.71
13068;BME280;6600;51.362;6.686;2023-03-01T07:13:48;102432.50;;;0.13;88.85
13068;BME280;6600;51.362;6.686;2023-03-01T07:16:14;102429.72;;;0.15;89.21
13068;BME280;6600;51.362;6.686;2023-03-01T07:18:40;102427.72;;;0.18;89.42
13068;BME280;6600;51.362;6.686;2023-03-01T07:21:09;102428.03;;;0.26;88.92
13068;BME280;6600;51.362;6.686;2023-03-01T07:23:36;102433.09;;;0.29;89.18
13068;BME280;6600;51.362;6.686;2023-03-01T07:26:01;102428.38;;;0.34;89.16
13068;BME280;6600;51.362;6.686;2023-03-01T07:28:27;102423.19;;;0.33;88.58
13068;BME280;6600;51.362;6.686;2023-03-01T07:30:53;102427.91;;;0.40;88.14
13068;BME280;6600;51.362;6.686;2023-03-01T07:33:18;102424.53;;;0.38;87.64
13068;BME280;6600;51.362;6.686;2023-03-01T07:35:44;102422.34;;;0.32;87.98
13068;BME280;6600;51.362;6.686;2023-03-01T07:38:09;102424.03;;;0.33;89.06
13068;BME280;6600;51.362;6.686;2023-03-01T07:40:35;102415.81;;;0.25;89.43
13068;BME280;6600;51.362;6.686;2023-03-01T07:43:00;102410.09;;;0.31;90.29
13068;BME280;6600;51.362;6.686;2023-03-01T07:45:27;102412.84;;;0.30;89.91
13068;BME280;6600;51.362;6.686;2023-03-01T07:47:53;102406.91;;;0.39;90.67
13068;BME280;6600;51.362;6.686;2023-03-01T07:50:19;102411.34;;;0.38;90.27
13068;BME280;6600;51.362;6.686;2023-03-01T07:52:46;102406.69;;;0.55;89.78
13068;BME280;6600;51.362;6.686;2023-03-01T07:55:11;102419.22;;;0.64;89.14
13068;BME280;6600;51.362;6.686;2023-03-01T07:57:37;102417.81;;;0.71;89.15
13068;BME280;6600;51.362;6.686;2023-03-01T08:00:03;102417.91;;;0.82;87.85
13068;BME280;6600;51.362;6.686;2023-03-01T08:02:29;102413.50;;;0.93;87.80
13068;BME280;6600;51.362;6.686;2023-03-01T08:04:54;102425.25;;;1.13;86.52
13068;BME280;6600;51.362;6.686;2023-03-01T08:07:19;102411.53;;;1.08;86.31
13068;BME280;6600;51.362;6.686;2023-03-01T08:09:45;102421.66;;;1.14;87.13
13068;BME280;6600;51.362;6.686;2023-03-01T08:12:10;102422.03;;;1.21;86.53
13068;BME280;6600;51.362;6.686;2023-03-01T08:14:35;102415.28;;;1.40;84.35
13068;BME280;6600;51.362;6.686;2023-03-01T08:17:01;102416.28;;;1.50;82.64
13068;BME280;6600;51.362;6.686;2023-03-01T08:19:28;102423.28;;;1.63;82.23
13068;BME280;6600;51.362;6.686;2023-03-01T08:21:53;102422.72;;;1.81;80.79
13068;BME280;6600;51.362;6.686;2023-03-01T08:24:19;102419.03;;;1.95;79.67
13068;BME280;6600;51.362;6.686;2023-03-01T08:26:44;102413.75;;;2.06;79.77
13068;BME280;6600;51.362;6.686;2023-03-01T08:29:10;102407.88;;;2.14;78.40
13068;BME280;6600;51.362;6.686;2023-03-01T08:31:38;102410.66;;;2.34;78.34
13068;BME280;6600;51.362;6.686;2023-03-01T08:34:06;102409.66;;;2.46;78.45
13068;BME280;6600;51.362;6.686;2023-03-01T08:36:40;102413.75;;;2.62;77.22
13068;BME280;6600;51.362;6.686;2023-03-01T08:39:07;102408.81;;;2.68;75.47
13068;BME280;6600;51.362;6.686;2023-03-01T08:41:33;102402.16;;;2.74;74.53
13068;BME280;6600;51.362;6.686;2023-03-01T08:43:58;102408.38;;;2.84;74.51
13068;BME280;6600;51.362;6.686;2023-03-01T08:46:27;102407.78;;;2.91;73.28
13068;BME280;6600;51.362;6.686;2023-03-01T08:48:53;102400.81;;;2.79;72.93
13068;BME280;6600;51.362;6.686;2023-03-01T08:51:20;102404.78;;;2.85;73.42
13068;BME280;6600;51.362;6.686;2023-03-01T08:53:46;102411.00;;;2.95;73.60
13068;BME280;6600;51.362;6.686;2023-03-01T08:56:12;102401.09;;;3.08;73.18
13068;BME280;6600;51.362;6.686;2023-03-01T08:58:38;102403.19;;;3.25;72.76
13068;BME280;6600;51.362;6.686;2023-03-01T09:01:11;102401.94;;;3.40;72.20
13068;BME280;6600;51.362;6.686;2023-03-01T09:03:37;102406.97;;;3.43;71.44
13068;BME280;6600;51.362;6.686;2023-03-01T09:06:04;102408.31;;;3.58;71.68
13068;BME280;6600;51.362;6.686;2023-03-01T09:08:30;102411.66;;;3.72;71.15
13068;BME280;6600;51.362;6.686;2023-03-01T09:10:55;102400.25;;;3.81;70.00
13068;BME280;6600;51.362;6.686;2023-03-01T09:13:21;102400.31;;;3.90;69.75
13068;BME280;6600;51.362;6.686;2023-03-01T09:15:50;102404.41;;;4.04;69.30
13068;BME280;6600;51.362;6.686;2023-03-01T09:18:15;102400.34;;;4.00;68.12
13068;BME280;6600;51.362;6.686;2023-03-01T09:20:40;102398.69;;;3.99;67.19
13068;BME280;6600;51.362;6.686;2023-03-01T09:23:06;102402.34;;;4.07;67.78
13068;BME280;6600;51.362;6.686;2023-03-01T09:25:34;102400.28;;;4.11;66.89
13068;BME280;6600;51.362;6.686;2023-03-01T09:27:59;102396.13;;;4.18;67.14
13068;BME280;6600;51.362;6.686;2023-03-01T09:30:24;102388.53;;;4.34;68.18
13068;BME280;6600;51.362;6.686;2023-03-01T09:32:50;102392.56;;;4.38;66.73
13068;BME280;6600;51.362;6.686;2023-03-01T09:35:15;102380.59;;;4.53;67.44
13068;BME280;6600;51.362;6.686;2023-03-01T09:37:40;102384.56;;;4.69;66.58
13068;BME280;6600;51.362;6.686;2023-03-01T09:40:15;102384.41;;;4.80;65.25
13068;BME280;6600;51.362;6.686;2023-03-01T09:42:55;102383.91;;;4.86;65.96
13068;BME280;6600;51.362;6.686;2023-03-01T09:47:58;102367.41;;;4.82;64.42
13068;BME280;6600;51.362;6.686;2023-03-01T09:50:34;102373.53;;;4.83;63.99
13068;BME280;6600;51.362;6.686;2023-03-01T09:53:08;102368.78;;;4.77;64.43
13068;BME280;6600;51.362;6.686;2023-03-01T09:56:04;102367.41;;;5.01;65.99
13068;BME280;6600;51.362;6.686;2023-03-01T10:01:31;102360.97;;;5.04;64.41
13068;BME280;6600;51.362;6.686;2023-03-01T10:04:03;102361.53;;;5.07;64.10
13068;BME280;6600;51.362;6.686;2023-03-01T10:06:29;102367.41;;;5.11;64.60
13068;BME280;6600;51.362;6.686;2023-03-01T10:09:02;102361.38;;;5.28;63.29
13068;BME280;6600;51.362;6.686;2023-03-01T10:11:32;102369.09;;;5.12;63.36
13068;BME280;6600;51.362;6.686;2023-03-01T10:14:22;102353.00;;;5.23;62.83
13068;BME280;6600;51.362;6.686;2023-03-01T10:17:01;102350.03;;;5.36;62.75
13068;BME280;6600;51.362;6.686;2023-03-01T10:19:44;102341.13;;;5.08;63.59
13068;BME280;6600;51.362;6.686;2023-03-01T10:24:36;102322.94;;;5.13;63.41
13068;BME280;6600;51.362;6.686;2023-03-01T10:27:07;102310.06;;;5.37;63.59
13068;BME280;6600;51.362;6.686;2023-03-01T10:29:45;102312.66;;;5.56;63.26
13068;BME280;6600;51.362;6.686;2023-03-01T10:32:14;102313.28;;;5.78;63.05
13068;BME280;6600;51.362;6.686;2023-03-01T10:34:39;102312.69;;;5.84;62.52
13068;BME280;6600;51.362;6.686;2023-03-01T10:37:16;102316.19;;;5.94;61.73
13068;BME280;6600;51.362;6.686;2023-03-01T10:42:27;102321.88;;;6.08;60.14
13068;BME280;6600;51.362;6.686;2023-03-01T10:44:53;102316.50;;;6.18;60.22
13068;BME280;6600;51.362;6.686;2023-03-01T10:47:22;102316.91;;;6.23;60.84
13068;BME280;6600;51.362;6.686;2023-03-01T10:52:20;102302.03;;;6.03;58.13
13068;BME280;6600;51.362;6.686;2023-03-01T10:54:56;102299.91;;;6.06;58.68
13068;BME280;6600;51.362;6.686;2023-03-01T10:57:29;102286.16;;;6.11;59.46
13068;BME280;6600;51.362;6.686;2023-03-01T11:00:16;102287.88;;;6.30;58.25
13068;BME280;6600;51.362;6.686;2023-03-01T11:02:48;102285.75;;;6.33;58.32
13068;BME280;6600;51.362;6.686;2023-03-01T11:07:51;102288.19;;;6.17;57.99
13068;BME280;6600;51.362;6.686;2023-03-01T11:10:20;102271.66;;;6.23;58.74
13068;BME280;6600;51.362;6.686;2023-03-01T11:12:46;102273.91;;;6.18;58.25
13068;BME280;6600;51.362;6.686;2023-03-01T11:15:27;102270.06;;;6.30;57.47
13068;BME280;6600;51.362;6.686;2023-03-01T11:17:53;102261.03;;;6.58;58.24
13068;BME280;6600;51.362;6.686;2023-03-01T11:20:25;102262.72;;;6.77;56.76
13068;BME280;6600;51.362;6.686;2023-03-01T11:23:01;102255.25;;;6.81;55.73
13068;BME280;6600;51.362;6.686;2023-03-01T11:25:37;102264.22;;;6.80;55.63
13068;BME280;6600;51.362;6.686;2023-03-01T11:28:05;102259.38;;;6.93;57.20
13068;BME280;6600;51.362;6.686;2023-03-01T11:30:39;102258.13;;;7.05;56.47
13068;BME280;6600;51.362;6.686;2023-03-01T11:33:34;102251.41;;;7.01;55.64
13068;BME280;6600;51.362;6.686;2023-03-01T11:38:53;102231.94;;;6.83;55.58
13068;BME280;6600;51.362;6.686;2023-03-01T11:41:34;102231.28;;;6.81;55.53
13068;BME280;6600;51.362;6.686;2023-03-01T11:44:03;102239.34;;;6.71;56.02
13068;BME280;6600;51.362;6.686;2023-03-01T11:49:40;102237.44;;;6.64;55.86
13068;BME280;6600;51.362;6.686;2023-03-01T11:57:42;102236.25;;;6.76;56.14
13068;BME280;6600;51.362;6.686;2023-03-01T12:06:12;102222.84;;;6.32;56.88
13068;BME280;6600;51.362;6.686;2023-03-01T12:14:51;102234.41;;;6.41;55.71
13068;BME280;6600;51.362;6.686;2023-03-01T12:23:59;102211.56;;;6.56;56.17
13068;BME280;6600;51.362;6.686;2023-03-01T12:43:04;102188.88;;;6.70;54.51
13068;BME280;6600;51.362;6.686;2023-03-01T12:45:43;102190.88;;;6.68;54.76
13068;BME280;6600;51.362;6.686;2023-03-01T12:48:40;102182.50;;;6.63;55.47
13068;BME280;6600;51.362;6.686;2023-03-01T12:51:09;102171.53;;;6.66;55.70
13068;BME280;6600;51.362;6.686;2023-03-01T12:53:40;102178.38;;;6.86;56.11
13068;BME280;6600;51.362;6.686;2023-03-01T12:56:10;102177.75;;;6.92;54.85
13068;BME280;6600;51.362;6.686;2023-03-01T12:58:48;102174.81;;;6.77;54.15
13068;BME280;6600;51.362;6.686;2023-03-01T13:17:47;102163.53;;;7.09;55.13
13068;BME280;6600;51.362;6.686;2023-03-01T13:20:15;102153.84;;;7.08;55.45
13068;BME280;6600;51.362;6.686;2023-03-01T13:22:41;102144.97;;;7.25;57.42
13068;BME280;6600;51.362;6.686;2023-03-01T13:25:18;102145.41;;;7.21;54.98
13068;BME280;6600;51.362;6.686;2023-03-01T13:27:45;102142.34;;;7.33;55.68
13068;BME280;6600;51.362;6.686;2023-03-01T13:30:41;102141.56;;;7.15;54.91
13068;BME280;6600;51.362;6.686;2023-03-01T13:35:51;102134.63;;;7.22;54.47
13068;BME280;6600;51.362;6.686;2023-03-01T13:41:04;102132.28;;;7.19;54.28
13068;BME280;6600;51.362;6.686;2023-03-01T13:43:34;102117.63;;;7.23;53.41
13068;BME280;6600;51.362;6.686;2023-03-01T13:46:02;102113.84;;;7.34;54.07
13068;BME280;6600;51.362;6.686;2023-03-01T13:48:33;102118.09;;;7.19;54.08
13068;BME280;6600;51.362;6.686;2023-03-01T13:51:22;102109.13;;;7.28;55.46
13068;BME280;6600;51.362;6.686;2023-03-01T13:53:49;102107.81;;;7.24;53.83
13068;BME280;6600;51.362;6.686;2023-03-01T13:56:18;102114.19;;;7.31;54.28
13068;BME280;6600;51.362;6.686;2023-03-01T13:59:13;102095.13;;;7.26;54.65
13068;BME280;6600;51.362;6.686;2023-03-01T14:01:39;102090.19;;;7.31;55.41
13068;BME280;6600;51.362;6.686;2023-03-01T14:04:20;102089.34;;;7.38;54.32
13068;BME280;6600;51.362;6.686;2023-03-01T14:06:46;102089.34;;;7.38;55.48
13068;BME280;6600;51.362;6.686;2023-03-01T14:09:27;102091.34;;;7.36;54.37
13068;BME280;6600;51.362;6.686;2023-03-01T14:12:44;102092.66;;;7.32;54.20
13068;BME280;6600;51.362;6.686;2023-03-01T14:14:46;102082.19;;;7.39;54.42
13068;BME280;6600;51.362;6.686;2023-03-01T14:19:48;102080.06;;;7.50;55.50
13068;BME280;6600;51.362;6.686;2023-03-01T14:22:24;102071.72;;;7.45;54.88
13068;BME280;6600;51.362;6.686;2023-03-01T14:25:02;102079.03;;;7.43;54.83
13068;BME280;6600;51.362;6.686;2023-03-01T14:27:36;102087.09;;;7.51;55.93
13068;BME280;6600;51.362;6.686;2023-03-01T14:30:13;102061.72;;;7.47;55.13
13068;BME280;6600;51.362;6.686;2023-03-01T14:32:40;102066.03;;;7.40;56.04
13068;BME280;6600;51.362;6.686;2023-03-01T14:35:23;102061.69;;;7.39;55.03
13068;BME280;6600;51.362;6.686;2023-03-01T14:37:49;102058.69;;;7.34;55.55
13068;BME280;6600;51.362;6.686;2023-03-01T14:40:27;102054.88;;;7.37;55.75
13068;BME280;6600;51.362;6.686;2023-03-01T14:42:54;102055.00;;;7.27;55.37
13068;BME280;6600;51.362;6.686;2023-03-01T14:45:20;102048.84;;;7.27;55.81
13068;BME280;6600;51.362;6.686;2023-03-01T14:47:46;102044.00;;;7.30;54.81
13068;BME280;6600;51.362;6.686;2023-03-01T14:50:21;102047.34;;;7.32;55.09
13068;BME280;6600;51.362;6.686;2023-03-01T14:52:49;102030.69;;;7.38;55.28
13068;BME280;6600;51.362;6.686;2023-03-01T14:55:18;102043.38;;;7.52;55.54
13068;BME280;6600;51.362;6.686;2023-03-01T14:57:47;102050.72;;;7.50;55.11